Port Hedland, Australia
Current Conditions -  °F | °C
As of 4:30 AM on Wednesday 26 Nov 2014 (Local Time) from YPPD Reporting Station
Clear Clear  
Wind Chill: 79°   Ceiling: Unl
Heat Index: 80°   Visibility: 6mi
Dew Point: 63°   Wind: 7mph
Humidity: 57%   Direction: 130°SE
Pressure: 29.8"   Gusts: NA
Location:  20.31°S, 118.58°E
Report Text: YPPD 252030Z AUTO 13006KT 9999 // NCD 26/17 Q1009
Loading
Personal Weather Stations






























Interactive Weather Map New forecast layout! Learn more

10-Day Weather Forecast

Advertisements
Track Severe Weather on mobile